createdAt,value
2018-02-18T00:00:10.789Z,7.29
2018-02-18T00:02:38.346Z,7.35
2018-02-18T00:05:06.228Z,7.41
2018-02-18T00:07:33.789Z,7.44
2018-02-18T00:10:01.343Z,7.30
2018-02-18T00:12:28.952Z,7.36
2018-02-18T00:15:13.365Z,7.49
2018-02-18T00:17:40.963Z,7.70
2018-02-18T00:20:08.556Z,7.83
2018-02-18T00:22:36.140Z,7.77
2018-02-18T00:25:03.711Z,7.93
2018-02-18T00:27:31.281Z,8.00
2018-02-18T00:29:58.871Z,7.96
2018-02-18T00:32:26.417Z,7.60
2018-02-18T00:34:54.002Z,7.41
2018-02-18T00:37:21.554Z,6.99
2018-02-18T00:39:49.154Z,6.75
2018-02-18T00:42:17.134Z,6.94
2018-02-18T00:44:44.723Z,7.23
2018-02-18T00:47:12.590Z,7.41
2018-02-18T00:49:40.207Z,7.22
2018-02-18T00:52:07.798Z,7.04
2018-02-18T00:54:35.818Z,6.95
2018-02-18T00:57:03.415Z,6.94
2018-02-18T00:59:30.973Z,6.75
2018-02-18T01:01:58.517Z,6.75
2018-02-18T01:04:26.108Z,6.79
2018-02-18T01:06:53.650Z,6.80
2018-02-18T01:09:21.245Z,7.04
2018-02-18T01:11:48.837Z,7.08
2018-02-18T01:14:16.422Z,7.21
2018-02-18T01:16:44.096Z,7.17
2018-02-18T01:19:11.687Z,7.39
2018-02-18T01:21:39.254Z,7.50
2018-02-18T01:24:06.859Z,7.56
2018-02-18T01:26:34.406Z,7.54
2018-02-18T01:29:01.953Z,6.75
2018-02-18T01:31:29.554Z,5.69
2018-02-18T01:33:57.102Z,5.19
2018-02-18T01:36:24.694Z,4.64
2018-02-18T01:38:52.435Z,4.26
2018-02-18T01:41:20.036Z,4.30
2018-02-18T01:43:47.643Z,4.34
2018-02-18T01:46:15.182Z,4.64
2018-02-18T01:48:43.197Z,4.95
2018-02-18T01:51:10.782Z,5.11
2018-02-18T01:53:38.392Z,4.99
2018-02-18T01:56:06.372Z,4.75
2018-02-18T01:58:34.316Z,4.52
2018-02-18T02:01:01.900Z,5.09
2018-02-18T02:03:30.023Z,5.62
2018-02-18T02:05:57.842Z,6.11
2018-02-18T02:08:25.385Z,6.40
2018-02-18T02:10:52.966Z,6.62
2018-02-18T02:13:20.532Z,6.83
2018-02-18T02:15:48.346Z,7.01
2018-02-18T02:18:16.030Z,7.20
2018-02-18T02:20:43.565Z,7.31
2018-02-18T02:23:11.141Z,7.39
2018-02-18T02:25:38.682Z,7.39
2018-02-18T02:28:06.279Z,7.47
2018-02-18T02:30:33.886Z,7.49
2018-02-18T02:33:01.435Z,7.66
2018-02-18T02:35:30.013Z,7.75
2018-02-18T02:37:57.586Z,7.77
2018-02-18T02:40:25.180Z,7.76
2018-02-18T02:42:53.092Z,7.84
2018-02-18T02:45:20.704Z,7.84
2018-02-18T02:47:48.251Z,7.86
2018-02-18T02:50:15.842Z,7.77
2018-02-18T02:52:43.378Z,7.77
2018-02-18T02:55:10.989Z,7.30
2018-02-18T02:57:38.548Z,6.39
2018-02-18T03:00:06.132Z,6.17
2018-02-18T03:02:33.725Z,6.46
2018-02-18T03:05:01.282Z,6.51
2018-02-18T03:07:28.854Z,6.67
2018-02-18T03:09:56.448Z,6.52
2018-02-18T03:12:24.025Z,6.83
2018-02-18T03:14:51.575Z,7.11
2018-02-18T03:17:19.154Z,7.38
2018-02-18T03:19:47.096Z,7.55
2018-02-18T03:22:14.679Z,7.62
2018-02-18T03:24:42.254Z,7.70
2018-02-18T03:27:09.893Z,7.78
2018-02-18T03:29:37.682Z,7.88
2018-02-18T03:32:06.211Z,7.98
2018-02-18T03:34:34.117Z,7.99
2018-02-18T03:37:01.703Z,8.04
2018-02-18T03:39:29.944Z,8.09
2018-02-18T03:41:57.483Z,7.86
2018-02-18T03:44:25.040Z,7.49
2018-02-18T03:46:52.990Z,7.63
2018-02-18T03:49:20.530Z,7.78
2018-02-18T03:51:48.074Z,7.88
2018-02-18T03:54:15.670Z,7.86
2018-02-18T03:56:43.260Z,7.16
2018-02-18T03:59:10.801Z,7.12
2018-02-18T04:01:38.476Z,7.27
2018-02-18T04:04:06.068Z,7.13
2018-02-18T04:06:33.642Z,7.13
2018-02-18T04:09:02.382Z,7.40
2018-02-18T04:11:29.921Z,7.55
2018-02-18T04:13:57.467Z,7.69
2018-02-18T04:16:25.080Z,7.87
2018-02-18T04:18:52.623Z,7.95
2018-02-18T04:21:20.458Z,7.98
2018-02-18T04:23:48.034Z,7.98
2018-02-18T04:26:15.619Z,7.86
2018-02-18T04:28:43.203Z,7.46
2018-02-18T04:31:10.758Z,6.95
2018-02-18T04:33:38.365Z,6.64
2018-02-18T04:36:05.920Z,6.47
2018-02-18T04:38:33.519Z,6.36
2018-02-18T04:41:01.128Z,6.73
2018-02-18T04:43:28.675Z,7.03
2018-02-18T04:45:56.214Z,7.25
2018-02-18T04:48:23.804Z,7.39
2018-02-18T04:50:51.667Z,7.54
2018-02-18T04:53:19.262Z,7.50
2018-02-18T04:55:46.948Z,7.53
2018-02-18T04:58:14.904Z,7.60
2018-02-18T05:00:42.471Z,7.65
2018-02-18T05:03:10.017Z,7.78
2018-02-18T05:05:37.611Z,7.94
2018-02-18T05:08:05.163Z,8.01
2018-02-18T05:10:32.747Z,8.12
2018-02-18T05:13:00.295Z,8.06
2018-02-18T05:15:27.911Z,8.08
2018-02-18T05:17:56.431Z,8.11
2018-02-18T05:20:23.987Z,8.10
2018-02-18T05:22:51.539Z,8.11
2018-02-18T05:25:19.635Z,8.05
2018-02-18T05:27:47.769Z,8.04
2018-02-18T05:30:15.374Z,8.01
2018-02-18T05:32:42.973Z,8.06
2018-02-18T05:35:10.560Z,8.10
2018-02-18T05:37:39.011Z,8.21
2018-02-18T05:40:06.613Z,8.15
2018-02-18T05:42:34.149Z,8.12
2018-02-18T05:45:02.659Z,8.12
2018-02-18T05:47:30.805Z,7.90
2018-02-18T05:49:58.363Z,7.83
2018-02-18T05:52:25.951Z,7.92
2018-02-18T05:54:53.500Z,7.99
2018-02-18T05:57:21.078Z,7.84
2018-02-18T05:59:48.683Z,7.68
2018-02-18T06:02:16.269Z,7.50
2018-02-18T06:04:43.820Z,7.39
2018-02-18T06:07:11.689Z,7.56
2018-02-18T06:09:39.244Z,7.75
2018-02-18T06:12:06.840Z,7.76
2018-02-18T06:14:35.202Z,7.91
2018-02-18T06:17:03.234Z,8.07
2018-02-18T06:19:31.274Z,8.24
2018-02-18T06:21:59.543Z,8.40
2018-02-18T06:24:27.368Z,8.42
2018-02-18T06:26:55.339Z,8.56
2018-02-18T06:29:22.930Z,8.60
2018-02-18T06:31:50.470Z,8.64
2018-02-18T06:34:18.073Z,8.58
2018-02-18T06:36:45.627Z,8.52
2018-02-18T06:39:13.224Z,8.58
2018-02-18T06:41:40.836Z,8.58
2018-02-18T06:44:08.770Z,8.37
2018-02-18T06:46:36.314Z,8.42
2018-02-18T06:49:03.892Z,8.44
2018-02-18T06:51:31.444Z,8.42
2018-02-18T06:53:59.039Z,8.36
2018-02-18T06:56:26.626Z,8.43
2018-02-18T06:58:54.210Z,8.55
2018-02-18T07:01:21.808Z,8.69
2018-02-18T07:03:49.349Z,8.75
2018-02-18T07:06:16.944Z,8.81
2018-02-18T07:08:44.486Z,8.80
2018-02-18T07:11:12.070Z,8.93
2018-02-18T07:13:39.890Z,9.03
2018-02-18T07:16:07.475Z,9.07
2018-02-18T07:18:35.021Z,8.80
2018-02-18T07:21:02.589Z,8.85
2018-02-18T07:23:30.404Z,8.89
2018-02-18T07:25:58.975Z,8.71
2018-02-18T07:28:26.676Z,8.58
2018-02-18T07:30:54.237Z,8.63
2018-02-18T07:33:22.760Z,8.49
2018-02-18T07:35:50.347Z,8.56
2018-02-18T07:38:17.904Z,8.67
2018-02-18T07:40:45.512Z,8.68
2018-02-18T07:43:13.064Z,8.76
2018-02-18T07:45:40.598Z,8.67
2018-02-18T07:48:08.682Z,8.47
2018-02-18T07:50:36.252Z,8.45
2018-02-18T07:53:03.852Z,8.68
2018-02-18T07:55:31.394Z,8.88
2018-02-18T07:57:59.745Z,9.06
2018-02-18T08:00:27.367Z,9.04
2018-02-18T08:02:54.951Z,9.05
2018-02-18T08:05:22.503Z,8.84
2018-02-18T08:07:50.091Z,8.78
2018-02-18T08:10:17.771Z,8.81
2018-02-18T08:12:45.359Z,8.84
2018-02-18T08:15:13.552Z,9.01
2018-02-18T08:17:41.100Z,9.03
2018-02-18T08:20:08.697Z,9.05
2018-02-18T08:22:36.229Z,9.01
2018-02-18T08:25:03.783Z,9.02
2018-02-18T08:27:31.796Z,8.89
2018-02-18T08:29:59.335Z,9.07
2018-02-18T08:32:26.873Z,9.24
2018-02-18T08:34:54.450Z,9.29
2018-02-18T08:37:22.044Z,9.36
2018-02-18T08:39:49.594Z,9.48
2018-02-18T08:42:17.188Z,9.61
2018-02-18T08:44:44.777Z,9.72
2018-02-18T08:47:12.354Z,9.78
2018-02-18T08:49:39.920Z,9.71
2018-02-18T08:52:07.520Z,9.69
2018-02-18T08:54:35.938Z,9.69
2018-02-18T08:57:03.506Z,9.74
2018-02-18T08:59:31.048Z,9.41
2018-02-18T09:01:58.635Z,9.46
2018-02-18T09:04:26.166Z,9.64
2018-02-18T09:06:54.546Z,9.62
2018-02-18T09:09:22.086Z,9.61
2018-02-18T09:11:49.671Z,9.70
2018-02-18T09:14:18.396Z,9.78
2018-02-18T09:16:46.316Z,9.84
2018-02-18T09:19:14.224Z,9.84
2018-02-18T09:21:41.822Z,9.76
2018-02-18T09:24:09.366Z,9.75
2018-02-18T09:26:36.977Z,9.78
2018-02-18T09:29:04.524Z,9.85
2018-02-18T09:31:32.610Z,9.84
2018-02-18T09:34:00.527Z,9.84
2018-02-18T09:36:29.823Z,9.93
2018-02-18T09:38:57.756Z,9.93
2018-02-18T09:41:25.348Z,9.89
2018-02-18T09:43:53.313Z,9.83
2018-02-18T09:46:20.915Z,9.87
2018-02-18T09:48:48.479Z,9.95
2018-02-18T09:51:16.036Z,9.54
2018-02-18T09:53:43.629Z,9.56
2018-02-18T09:56:11.320Z,9.70
2018-02-18T09:58:40.187Z,9.63
2018-02-18T10:01:08.126Z,9.75
2018-02-18T10:03:35.775Z,9.70
2018-02-18T10:06:03.852Z,9.61
2018-02-18T10:08:31.607Z,9.42
2018-02-18T10:10:59.482Z,9.56
2018-02-18T10:13:27.802Z,9.59
2018-02-18T10:15:55.763Z,9.28
2018-02-18T10:18:23.307Z,9.33
2018-02-18T10:20:51.182Z,9.51
2018-02-18T10:23:19.751Z,9.69
2018-02-18T10:25:47.600Z,9.88
2018-02-18T10:28:16.910Z,9.90
2018-02-18T10:30:44.808Z,9.77
2018-02-18T10:33:12.347Z,9.18
2018-02-18T10:35:40.464Z,8.69
2018-02-18T10:38:09.028Z,8.65
2018-02-18T10:40:37.520Z,8.90
2018-02-18T10:43:05.411Z,9.28
2018-02-18T10:45:33.007Z,9.60
2018-02-18T10:48:00.565Z,9.86
2018-02-18T10:50:28.127Z,10.07
2018-02-18T10:52:55.729Z,10.14
2018-02-18T10:55:23.272Z,10.10
2018-02-18T10:57:51.328Z,10.20
2018-02-18T11:00:19.192Z,10.07
2018-02-18T11:02:47.904Z,9.96
2018-02-18T11:05:15.451Z,10.12
2018-02-18T11:07:43.841Z,10.32
2018-02-18T11:10:11.848Z,10.48
2018-02-18T11:12:39.400Z,10.50
2018-02-18T11:15:06.982Z,10.53
2018-02-18T11:17:35.213Z,10.52
2018-02-18T11:20:02.791Z,10.60
2018-02-18T11:22:30.332Z,10.55
2018-02-18T11:24:57.920Z,10.45
2018-02-18T11:27:25.462Z,10.53
2018-02-18T11:29:54.315Z,10.49
2018-02-18T11:32:22.098Z,10.46
2018-02-18T11:34:52.348Z,10.56
2018-02-18T11:37:21.321Z,10.54
2018-02-18T11:39:48.872Z,10.52
2018-02-18T11:42:16.504Z,10.65
2018-02-18T11:44:44.790Z,10.79
2018-02-18T11:47:12.553Z,10.77
2018-02-18T11:49:40.603Z,10.53
2018-02-18T11:52:08.156Z,10.30
2018-02-18T11:54:35.710Z,10.09
2018-02-18T11:57:03.904Z,10.08
2018-02-18T11:59:31.515Z,9.87
2018-02-18T12:02:00.089Z,10.01
2018-02-18T12:04:27.675Z,10.16
2018-02-18T12:06:55.275Z,10.28
2018-02-18T12:09:23.751Z,10.36
2018-02-18T12:11:51.560Z,10.44
2018-02-18T12:14:19.181Z,10.58
2018-02-18T12:16:47.052Z,10.70
2018-02-18T12:19:14.914Z,10.29
2018-02-18T12:21:43.004Z,10.15
2018-02-18T12:24:11.293Z,9.97
2018-02-18T12:26:39.236Z,9.68
2018-02-18T12:29:07.450Z,9.51
2018-02-18T12:31:37.052Z,9.69
2018-02-18T12:34:06.342Z,9.85
2018-02-18T12:36:33.892Z,9.55
2018-02-18T12:39:01.496Z,9.45
2018-02-18T12:41:29.099Z,9.49
2018-02-18T12:43:56.796Z,9.67
2018-02-18T12:46:24.855Z,9.67
2018-02-18T12:48:53.359Z,9.50
2018-02-18T12:51:20.912Z,9.47
2018-02-18T12:53:48.766Z,9.37
2018-02-18T12:56:16.844Z,9.33
2018-02-18T12:58:45.224Z,9.34
2018-02-18T13:01:12.768Z,9.44
2018-02-18T13:03:40.302Z,9.48
2018-02-18T13:06:08.105Z,9.64
2018-02-18T13:08:36.161Z,9.74
2018-02-18T13:11:04.582Z,9.77
2018-02-18T13:13:32.124Z,10.00
2018-02-18T13:15:59.928Z,10.31
2018-02-18T13:18:28.571Z,10.40
2018-02-18T13:20:56.308Z,10.14
2018-02-18T13:23:24.348Z,9.98
2018-02-18T13:25:53.140Z,10.02
2018-02-18T13:28:20.821Z,10.14
2018-02-18T13:30:48.371Z,10.22
2018-02-18T13:33:16.394Z,10.40
2018-02-18T13:35:45.339Z,10.51
2018-02-18T13:38:13.446Z,10.62
2018-02-18T13:40:40.996Z,10.54
2018-02-18T13:43:08.595Z,10.51
2018-02-18T13:45:36.144Z,10.49
2018-02-18T13:48:04.057Z,10.32
2018-02-18T13:50:31.652Z,10.29
2018-02-18T13:53:00.228Z,10.21
2018-02-18T13:55:28.401Z,10.19
2018-02-18T13:57:55.962Z,10.15
2018-02-18T14:00:23.502Z,10.17
2018-02-18T14:02:51.056Z,10.03
2018-02-18T14:05:19.396Z,9.94
2018-02-18T14:07:47.058Z,9.94
2018-02-18T14:10:14.604Z,9.86
2018-02-18T14:12:42.189Z,9.78
2018-02-18T14:15:09.734Z,9.83
2018-02-18T14:17:37.352Z,9.87
2018-02-18T14:20:04.927Z,9.97
2018-02-18T14:22:32.527Z,9.99
2018-02-18T14:25:00.480Z,10.10
2018-02-18T14:27:28.023Z,10.23
2018-02-18T14:29:57.276Z,10.24
2018-02-18T14:32:24.818Z,10.09
2018-02-18T14:34:53.229Z,9.97
2018-02-18T14:37:20.780Z,9.91
2018-02-18T14:39:48.441Z,9.78
2018-02-18T14:42:27.586Z,9.78
2018-02-18T14:45:07.328Z,9.77
2018-02-18T14:47:46.507Z,9.82
2018-02-18T14:50:25.879Z,9.85
2018-02-18T14:53:05.152Z,9.93
2018-02-18T14:55:44.427Z,10.04
2018-02-18T14:58:12.022Z,10.16
2018-02-18T15:00:39.563Z,10.23
2018-02-18T15:03:07.108Z,10.22
2018-02-18T15:05:34.932Z,10.24
2018-02-18T15:08:02.511Z,10.27
2018-02-18T15:10:30.154Z,10.11
2018-02-18T15:12:58.195Z,10.11
2018-02-18T15:15:25.788Z,10.24
2018-02-18T15:17:54.210Z,10.32
2018-02-18T15:20:22.636Z,10.34
2018-02-18T15:22:50.558Z,10.33
2018-02-18T15:25:18.118Z,10.34
2018-02-18T15:27:46.645Z,10.33
2018-02-18T15:30:14.201Z,9.98
2018-02-18T15:32:41.923Z,9.81
2018-02-18T15:35:09.467Z,9.82
2018-02-18T15:37:38.062Z,9.98
2018-02-18T15:40:06.015Z,10.12
2018-02-18T15:42:33.620Z,10.23
2018-02-18T15:45:02.102Z,10.25
2018-02-18T15:47:29.651Z,10.31
2018-02-18T15:49:58.175Z,10.35
2018-02-18T15:52:25.758Z,10.38
2018-02-18T15:54:53.354Z,10.37
2018-02-18T15:57:20.910Z,10.41
2018-02-18T15:59:48.467Z,10.43
2018-02-18T16:02:16.893Z,10.44
2018-02-18T16:04:44.654Z,10.38
2018-02-18T16:07:12.253Z,10.27
2018-02-18T16:09:39.815Z,10.28
2018-02-18T16:12:07.500Z,10.28
2018-02-18T16:14:35.086Z,10.19
2018-02-18T16:17:02.685Z,10.24
2018-02-18T16:19:30.767Z,10.21
2018-02-18T16:21:58.391Z,10.20
2018-02-18T16:24:25.980Z,10.23
2018-02-18T16:26:53.534Z,10.27
2018-02-18T16:29:21.131Z,10.27
2018-02-18T16:31:49.060Z,9.93
2018-02-18T16:34:16.620Z,9.34
2018-02-18T16:36:44.223Z,9.22
2018-02-18T16:39:12.010Z,9.33
2018-02-18T16:41:39.591Z,9.52
2018-02-18T16:44:07.200Z,9.66
2018-02-18T16:46:34.744Z,9.76
2018-02-18T16:49:02.457Z,9.84
2018-02-18T16:51:30.002Z,9.85
2018-02-18T16:53:57.640Z,9.82
2018-02-18T16:56:25.199Z,9.77
2018-02-18T16:58:52.793Z,9.86
2018-02-18T17:01:20.344Z,9.86
2018-02-18T17:03:47.950Z,9.84
2018-02-18T17:06:15.721Z,9.86
2018-02-18T17:08:44.121Z,9.48
2018-02-18T17:11:12.543Z,9.27
2018-02-18T17:13:40.308Z,9.45
2018-02-18T17:16:07.878Z,9.60
2018-02-18T17:18:35.427Z,9.66
2018-02-18T17:21:03.019Z,9.66
2018-02-18T17:23:30.563Z,9.70
2018-02-18T17:25:58.537Z,9.72
2018-02-18T17:28:26.480Z,9.76
2018-02-18T17:30:54.318Z,9.81
2018-02-18T17:33:22.337Z,9.82
2018-02-18T17:35:50.974Z,9.68
2018-02-18T17:38:19.553Z,9.67
2018-02-18T17:40:47.484Z,9.71
2018-02-18T17:43:16.644Z,9.69
2018-02-18T17:45:44.236Z,9.69
2018-02-18T17:48:12.175Z,9.73
2018-02-18T17:50:39.763Z,9.69
2018-02-18T17:53:07.578Z,9.72
2018-02-18T17:55:35.883Z,9.66
2018-02-18T17:58:03.838Z,9.68
2018-02-18T18:00:32.612Z,9.67
2018-02-18T18:03:00.264Z,9.47
2018-02-18T18:05:28.177Z,9.35
2018-02-18T18:07:55.834Z,9.40
2018-02-18T18:10:23.384Z,9.44
2018-02-18T18:12:51.667Z,9.48
2018-02-18T18:15:19.857Z,9.47
2018-02-18T18:17:47.398Z,9.24
2018-02-18T18:20:14.943Z,9.00
2018-02-18T18:22:43.193Z,9.09
2018-02-18T18:25:11.364Z,8.90
2018-02-18T18:27:38.911Z,8.83
2018-02-18T18:30:06.530Z,8.86
2018-02-18T18:32:34.507Z,8.96
2018-02-18T18:35:03.270Z,8.64
2018-02-18T18:37:31.632Z,8.53
2018-02-18T18:39:59.236Z,8.72
2018-02-18T18:42:26.818Z,8.84
2018-02-18T18:44:54.474Z,9.01
2018-02-18T18:47:22.622Z,9.08
2018-02-18T18:49:50.175Z,9.19
2018-02-18T18:52:17.851Z,9.23
2018-02-18T18:54:46.060Z,9.19
2018-02-18T18:57:13.625Z,9.11
2018-02-18T18:59:41.385Z,8.75
2018-02-18T19:02:10.819Z,8.72
2018-02-18T19:04:38.384Z,8.76
2018-02-18T19:07:05.944Z,8.72
2018-02-18T19:09:33.534Z,8.75
2018-02-18T19:12:03.231Z,8.65
2018-02-18T19:14:30.826Z,8.47
2018-02-18T19:16:59.451Z,8.51
2018-02-18T19:19:26.999Z,8.73
2018-02-18T19:21:55.283Z,8.85
2018-02-18T19:24:22.834Z,8.88
2018-02-18T19:26:50.479Z,8.91
2018-02-18T19:29:19.031Z,8.88
2018-02-18T19:31:46.575Z,8.60
2018-02-18T19:34:15.441Z,8.28
2018-02-18T19:36:45.759Z,8.29
2018-02-18T19:39:15.205Z,8.38
2018-02-18T19:41:43.119Z,8.40
2018-02-18T19:44:10.739Z,8.37
2018-02-18T19:46:39.725Z,8.00
2018-02-18T19:49:07.434Z,7.79
2018-02-18T19:51:35.039Z,8.09
2018-02-18T19:54:02.983Z,8.40
2018-02-18T19:56:46.004Z,8.56
2018-02-18T19:59:29.258Z,8.52
2018-02-18T20:02:13.528Z,8.43
2018-02-18T20:04:55.880Z,8.28
2018-02-18T20:07:38.635Z,7.63
2018-02-18T20:10:06.232Z,7.34
2018-02-18T20:12:35.167Z,7.39
2018-02-18T20:15:03.697Z,7.65
2018-02-18T20:17:31.884Z,7.98
2018-02-18T20:19:59.767Z,8.00
2018-02-18T20:22:28.042Z,7.87
2018-02-18T20:24:55.644Z,8.11
2018-02-18T20:27:23.512Z,8.17
2018-02-18T20:29:51.589Z,8.18
2018-02-18T20:32:19.983Z,8.18
2018-02-18T20:34:48.945Z,8.23
2018-02-18T20:37:16.732Z,8.42
2018-02-18T20:39:46.276Z,8.54
2018-02-18T20:42:13.858Z,8.66
2018-02-18T20:44:42.337Z,8.78
2018-02-18T20:47:11.174Z,8.85
2018-02-18T20:49:39.156Z,8.85
2018-02-18T20:52:06.742Z,8.08
2018-02-18T20:54:36.327Z,7.73
2018-02-18T20:57:03.918Z,7.62
2018-02-18T20:59:31.469Z,7.22
2018-02-18T21:01:59.059Z,6.86
2018-02-18T21:04:27.440Z,7.04
2018-02-18T21:06:55.056Z,7.37
2018-02-18T21:09:23.522Z,7.66
2018-02-18T21:11:51.092Z,7.86
2018-02-18T21:14:18.668Z,7.66
2018-02-18T21:16:46.259Z,7.25
2018-02-18T21:19:13.941Z,6.92
2018-02-18T21:21:41.535Z,6.54
2018-02-18T21:24:09.114Z,6.27
2018-02-18T21:26:36.705Z,6.16
2018-02-18T21:29:04.289Z,6.29
2018-02-18T21:31:31.830Z,6.35
2018-02-18T21:33:59.422Z,6.29
2018-02-18T21:36:26.963Z,6.38
2018-02-18T21:38:54.602Z,6.34
2018-02-18T21:41:22.155Z,6.26
2018-02-18T21:43:49.712Z,6.15
2018-02-18T21:46:17.430Z,6.10
2018-02-18T21:48:46.391Z,6.07
2018-02-18T21:51:14.008Z,5.96
2018-02-18T21:53:42.055Z,5.85
2018-02-18T21:56:09.783Z,5.76
2018-02-18T21:58:37.371Z,5.69
2018-02-18T22:01:04.924Z,5.80
2018-02-18T22:03:32.764Z,5.96
2018-02-18T22:06:00.379Z,6.16
2018-02-18T22:08:28.939Z,6.60
2018-02-18T22:10:56.522Z,6.99
2018-02-18T22:13:24.092Z,7.29
2018-02-18T22:15:52.213Z,7.52
2018-02-18T22:18:20.904Z,7.67
2018-02-18T22:20:48.455Z,7.74
2018-02-18T22:23:16.735Z,7.28
2018-02-18T22:25:44.478Z,7.06
2018-02-18T22:28:12.022Z,7.21
2018-02-18T22:30:39.906Z,7.41
2018-02-18T22:33:07.535Z,7.65
2018-02-18T22:35:36.515Z,7.85
2018-02-18T22:38:04.320Z,7.64
2018-02-18T22:40:32.110Z,7.40
2018-02-18T22:42:59.883Z,6.74
2018-02-18T22:45:27.609Z,6.54
2018-02-18T22:47:55.206Z,6.63
2018-02-18T22:50:22.747Z,6.82
2018-02-18T22:52:50.302Z,6.99
2018-02-18T22:55:17.917Z,7.05
2018-02-18T22:57:45.464Z,7.10
2018-02-18T23:00:17.968Z,7.26
2018-02-18T23:02:46.493Z,7.50
2018-02-18T23:05:19.623Z,7.71
2018-02-18T23:07:47.207Z,7.85
2018-02-18T23:10:14.794Z,7.92
2018-02-18T23:12:42.809Z,7.92
2018-02-18T23:15:10.844Z,7.90
2018-02-18T23:17:38.435Z,7.97
2018-02-18T23:20:06.387Z,7.96
2018-02-18T23:22:33.939Z,7.92
2018-02-18T23:25:01.531Z,7.96
2018-02-18T23:27:29.360Z,8.07
2018-02-18T23:29:56.906Z,7.72
2018-02-18T23:32:24.486Z,7.54
2018-02-18T23:34:52.076Z,7.65
2018-02-18T23:37:19.672Z,7.61
2018-02-18T23:39:47.614Z,7.63
2018-02-18T23:42:15.203Z,7.42
2018-02-18T23:44:42.742Z,7.38
2018-02-18T23:47:10.341Z,7.36
2018-02-18T23:49:37.888Z,7.47
2018-02-18T23:52:05.482Z,7.70
2018-02-18T23:54:33.029Z,7.84
2018-02-18T23:57:00.572Z,7.94
2018-02-18T23:59:28.413Z,7.93
